• Join FlightAware (Why Join?)
  • Login
  • US Flag 
05:54AM EDT


 

Airport Tracker/Info


-or-


 

Live Flight TrackerFlight Track Log ✈ UAL5887 ✈ 09-Apr-2013 ✈ KORD - CYOW

Flight Track Log - Related Links

Times and Time Zones

All times are in EDT time to prevent confusion due to time zone crossing. See the UAL5887 flight status page for this flight to view local times or setup timezone preferences in your user account.

Time Position Orientation Groundspeed Altitude Reporting Facility
EDT Latitude Longitude Course Direction KTS MPH feet Rate Location/Type
12:02PM 42.0167 -87.8833 56° Northeast 164 189 2,100  Level Chicago TRACON
12:03PM 42.0500 -87.8167 56° Northeast 248 285 3,400 2,040 Climbing Chicago TRACON
12:05PM 42.0847 -87.6203 77° East 289 333 8,500 2,400 Climbing Chicago Center
12:06PM 42.0967 -87.4814 83° East 306 352 11,100 2,220 Climbing Chicago Center
12:07PM 42.1092 -87.3542 82° East 334 384 13,100 1,560 Climbing Chicago Center
12:08PM 42.1222 -87.2158 83° East 362 417 14,400 1,200 Climbing Chicago Center
12:09PM 42.1347 -87.0647 84° East 395 455 15,600 1,320 Climbing Chicago Center
12:10PM 42.1486 -86.9078 83° East 417 480 17,200 1,560 Climbing Chicago Center
12:11PM 42.1631 -86.7494 83° East 424 488 18,800 1,560 Climbing Chicago Center
12:12PM 42.1781 -86.5806 83° East 433 498 20,400 1,500 Climbing Chicago Center
12:13PM 42.1919 -86.4169 83° East 438 504 22,000 1,500 Climbing Chicago Center
12:14PM 42.2058 -86.2522 83° East 442 509 23,500 1,380 Climbing Chicago Center
12:15PM 42.2219 -86.0506 84° East 448 516 24,900 1,560 Climbing Chicago Center
12:16PM 42.2336 -85.8978 84° East 449 517 26,700 1,680 Climbing Chicago Center
12:17PM 42.2472 -85.7383 83° East 439 505 28,400 1,500 Climbing Chicago Center
12:18PM 42.2586 -85.5817 84° East 428 493 29,900 1,380 Climbing Chicago Center
12:19PM 42.2733 -85.3908 84° East 428 493 31,300 1,140 Climbing Chicago Center
12:20PM 42.2856 -85.2250 84° East 441 507 32,300 1,020 Climbing Chicago Center
12:21PM 42.2975 -85.0547 85° East 452 520 33,500 1,200 Climbing Chicago Center
12:22PM 42.3028 -84.9886 84° East 450 518 34,000 540 Climbing Cleveland Center
12:23PM 42.3128 -84.8375 85° East 450 518 34,300 480 Climbing Cleveland Center
12:24PM 42.2875 -84.7264 107° East 450 518 35,000 300 Climbing Cleveland Center
12:25PM 42.2856 -84.4819 91° East 455 524 35,000  Level Cleveland Center
12:26PM 42.3061 -84.3064 81° East 461 531 35,000  Level Cleveland Center
12:27PM 42.3303 -84.1364 79° East 461 531 35,000  Level Cleveland Center
12:28PM 42.3561 -83.9664 78° East 461 531 35,000  Level Cleveland Center
12:29PM 42.3800 -83.7933 79° East 467 537 35,000  Level Cleveland Center
12:30PM 42.4078 -83.6175 78° East 467 537 35,000  Level Cleveland Center
12:31PM 42.4497 -83.4450 72° East 467 537 35,000  Level Cleveland Center
12:32PM 42.4958 -83.2583 71° East 472 543 35,000  Level Cleveland Center
12:33PM 42.5414 -83.0883 70° East 477 549 35,000  Level Cleveland Center
12:34PM 42.5864 -82.9211 70° East 477 549 35,000  Level Cleveland Center
12:35PM 42.6314 -82.7561 70° East 477 549 35,000  Level Cleveland Center
12:36PM 42.6764 -82.5825 71° East 472 543 35,000  Level Cleveland Center
12:37PM 42.7186 -82.4117 71° East 472 543 35,000  Level Cleveland Center
12:38PM 42.7650 -82.2403 70° East 472 543 35,000  Level Cleveland Center
12:39PM 42.8069 -82.0661 72° East 477 549 35,000  Level Cleveland Center
12:40PM 42.8508 -81.8914 71° East 477 549 35,000  Level Cleveland Center
12:41PM 42.9167 -81.6167 72° East 480 552 35,000  Level Toronto Center
12:42PM 42.9500 -81.4500 75° East 480 552 35,000  Level Toronto Center
12:43PM 42.9833 -81.2667 76° East 480 552 35,000  Level Toronto Center
12:44PM 43.0333 -81.1000 68° East 480 552 35,000  Level Toronto Center
12:45PM 43.1000 -80.9333 61° Northeast 480 552 35,000  Level Toronto Center
12:46PM 43.1833 -80.7833 53° Northeast 470 541 35,000  Level Toronto Center
12:47PM 43.2500 -80.6167 61° Northeast 480 552 35,000  Level Toronto Center
12:48PM 43.3000 -80.4500 68° East 480 552 35,000  Level Toronto Center
12:49PM 43.3667 -80.3000 59° Northeast 480 552 35,000  Level Toronto Center
12:50PM 43.4333 -80.1667 55° Northeast 480 552 35,000  Level Toronto Center
12:51PM 43.5000 -79.9833 63° Northeast 480 552 35,000  Level Toronto Center
12:52PM 43.5667 -79.8333 58° Northeast 480 552 35,000  Level Toronto Center
12:53PM 43.6333 -79.6833 58° Northeast 470 541 35,000  Level Toronto Center
12:54PM 43.6833 -79.5000 69° East 480 552 35,000  Level Toronto Center
12:55PM 43.7333 -79.3333 67° East 480 552 35,000  Level Toronto Center
12:56PM 43.7833 -79.1500 69° East 480 552 35,000  Level Toronto Center
12:57PM 43.8333 -78.9833 67° East 490 564 35,000  Level Toronto Center
12:58PM 43.8833 -78.8167 67° East 480 552 35,000  Level Toronto Center
12:59PM 43.9333 -78.6333 69° East 480 552 35,000  Level Toronto Center
01:00PM 43.9667 -78.4667 74° East 480 552 35,000  Level Toronto Center
01:01PM 44.0333 -78.2833 63° Northeast 480 552 35,000  Level Toronto Center
01:02PM 44.0833 -78.1167 67° East 480 552 35,000  Level Toronto Center
01:03PM 44.1500 -77.9667 58° Northeast 480 552 35,000  Level Toronto Center
01:04PM 44.2333 -77.8167 52° Northeast 480 552 35,000 -300 Level Toronto Center
01:05PM 44.3000 -77.6500 61° Northeast 480 552 34,400 -1,800 Descending Toronto Center
01:06PM 44.3833 -77.4833 55° Northeast 480 552 31,500 -2,880 Descending Toronto Center
01:07PM 44.4333 -77.3500 62° Northeast 470 541 28,700 -2,820 Descending Toronto Center
01:08PM 44.5000 -77.2833 35° Northeast 460 529 27,100 -2,760 Descending Montreal Center
01:09PM 44.5500 -77.1500 62° Northeast 460 529 24,400 -2,820 Descending Montreal Center
01:10PM 44.6333 -76.9833 55° Northeast 460 529 21,500 -2,640 Descending Montreal Center
01:11PM 44.7000 -76.8333 58° Northeast 460 529 19,200 -1,800 Descending Montreal Center
01:12PM 44.7667 -76.7000 55° Northeast 450 518 17,900 -1,140 Descending Montreal Center
01:12PM 44.8000 -76.6000 65° Northeast 450 518 17,600 -1,080 Descending Toronto Center
01:13PM 44.8667 -76.4833 51° Northeast 440 506 16,400 -1,500 Descending Toronto Center
01:14PM 44.9000 -76.4167 55° Northeast 430 495 15,300 -2,100 Descending Montreal Center
01:15PM 44.9833 -76.3000 45° Northeast 410 472 13,200 -2,040 Descending Montreal Center
01:16PM 45.0333 -76.1500 65° Northeast 380 437 11,300 -1,680 Descending Montreal Center
01:17PM 45.0500 -76.0333 79° East 350 403 9,900 -1,380 Descending Montreal Center
01:18PM 45.0667 -75.9167 79° East 320 368 8,600 -1,440 Descending Montreal Center
01:19PM 45.0833 -75.8000 79° East 310 357 7,100 -1,440 Descending Montreal Center
01:20PM 45.0833 -75.6833 90° East 290 334 5,800 -1,080 Descending Montreal Center
01:21PM 45.1000 -75.5833 77° East 250 288 5,000 -900 Descending Montreal Center
01:22PM 45.1167 -75.5167 70° East 220 253 4,100 -960 Descending Montreal Center
01:23PM 45.1667 -75.4667 35° Northeast 210 242 3,100 -900 Descending Montreal Center
01:24PM 45.2167 -75.5167 325° Northwest 200 230 2,300 -540 Descending Montreal Center
01:25PM 45.2500 -75.5667 313° West 190 219 2,100 -600 Descending Montreal Center
01:26PM 45.2667 -75.6167 295° West 140 161 1,200 -840 Descending Montreal Center
01:27PM 45.2833 -75.6667 295° West 120 138 500 -720 Descending Montreal Center
01:29PM 45.3167 -75.6667 317° Northwest  Level FlightAware Approximate
01:36PM 45.3225 -75.6692 317° Northwest  Level Estimated